createdAt,value
2019-03-18T00:00:31.312Z,99.90
2019-03-18T00:03:01.154Z,99.90
2019-03-18T00:05:30.702Z,99.90
2019-03-18T00:08:00.208Z,99.90
2019-03-18T00:10:29.626Z,99.90
2019-03-18T00:12:59.133Z,99.90
2019-03-18T00:15:28.620Z,99.90
2019-03-18T00:17:58.194Z,99.90
2019-03-18T00:20:27.631Z,99.90
2019-03-18T00:22:57.046Z,99.90
2019-03-18T00:25:26.497Z,99.90
2019-03-18T00:27:56.240Z,99.90
2019-03-18T00:30:25.635Z,99.90
2019-03-18T00:32:55.075Z,99.90
2019-03-18T00:35:24.472Z,99.90
2019-03-18T00:37:53.904Z,99.90
2019-03-18T00:40:23.439Z,99.90
2019-03-18T00:42:52.839Z,99.90
2019-03-18T00:45:22.299Z,99.90
2019-03-18T00:47:51.677Z,99.90
2019-03-18T00:50:21.531Z,99.90
2019-03-18T00:52:51.001Z,99.90
2019-03-18T00:55:20.409Z,99.90
2019-03-18T00:57:49.826Z,99.90
2019-03-18T01:00:20.208Z,99.90
2019-03-18T01:02:50.183Z,99.90
2019-03-18T01:05:19.643Z,99.90
2019-03-18T01:07:49.255Z,99.90
2019-03-18T01:10:19.095Z,99.90
2019-03-18T01:12:48.624Z,99.90
2019-03-18T01:15:27.328Z,99.90
2019-03-18T01:17:49.219Z,99.90
2019-03-18T01:20:18.765Z,99.90
2019-03-18T01:22:48.557Z,99.90
2019-03-18T01:25:18.036Z,99.90
2019-03-18T01:27:47.737Z,99.90
2019-03-18T01:30:17.403Z,99.90
2019-03-18T01:32:46.860Z,99.90
2019-03-18T01:35:16.396Z,99.90
2019-03-18T01:37:45.814Z,99.90
2019-03-18T01:40:15.347Z,99.90
2019-03-18T01:42:44.787Z,99.90
2019-03-18T01:45:14.354Z,99.90
2019-03-18T01:47:43.757Z,99.90
2019-03-18T01:50:15.505Z,99.90
2019-03-18T01:52:45.045Z,99.90
2019-03-18T01:55:14.507Z,99.90
2019-03-18T01:57:43.945Z,99.90
2019-03-18T02:00:15.229Z,99.90
2019-03-18T02:02:44.771Z,99.90
2019-03-18T02:05:14.184Z,99.90
2019-03-18T02:07:43.593Z,99.90
2019-03-18T02:10:15.173Z,99.90
2019-03-18T02:12:44.610Z,99.90
2019-03-18T02:15:15.534Z,99.90
2019-03-18T02:17:45.486Z,99.90
2019-03-18T02:20:19.664Z,99.90
2019-03-18T02:22:48.406Z,99.90
2019-03-18T02:25:17.832Z,99.90
2019-03-18T02:27:47.335Z,99.90
2019-03-18T02:30:20.433Z,99.90
2019-03-18T02:32:49.961Z,99.90
2019-03-18T02:35:19.441Z,99.90
2019-03-18T02:37:49.191Z,99.90
2019-03-18T02:40:18.677Z,99.90
2019-03-18T02:42:48.074Z,99.90
2019-03-18T02:45:17.516Z,99.90
2019-03-18T02:47:46.924Z,99.90
2019-03-18T02:50:16.360Z,99.90
2019-03-18T02:52:45.778Z,99.90
2019-03-18T02:55:15.185Z,99.90
2019-03-18T02:57:44.898Z,99.90
2019-03-18T03:00:15.776Z,99.90
2019-03-18T03:02:45.314Z,99.90
2019-03-18T03:05:15.068Z,99.90
2019-03-18T03:07:44.560Z,99.90
2019-03-18T03:10:15.159Z,99.90
2019-03-18T03:13:03.972Z,99.90
2019-03-18T03:15:33.410Z,99.90
2019-03-18T03:18:02.875Z,99.90
2019-03-18T03:20:32.288Z,99.90
2019-03-18T03:23:01.704Z,99.90
2019-03-18T03:25:31.110Z,99.90
2019-03-18T03:28:00.567Z,99.90
2019-03-18T03:30:30.045Z,99.90
2019-03-18T03:32:59.830Z,99.90
2019-03-18T03:35:48.575Z,99.90
2019-03-18T03:38:17.991Z,99.90
2019-03-18T03:40:47.421Z,99.90
2019-03-18T03:43:16.890Z,99.90
2019-03-18T03:45:46.313Z,99.90
2019-03-18T03:48:16.170Z,99.90
2019-03-18T03:50:45.570Z,99.90
2019-03-18T03:53:15.013Z,99.90
2019-03-18T03:55:44.751Z,99.90
2019-03-18T03:58:14.328Z,99.90
2019-03-18T04:00:43.813Z,99.90
2019-03-18T04:03:13.586Z,99.90
2019-03-18T04:05:43.395Z,99.90
2019-03-18T04:08:12.794Z,99.90
2019-03-18T04:10:42.305Z,99.90
2019-03-18T04:13:12.092Z,99.90
2019-03-18T04:15:41.603Z,99.90
2019-03-18T04:18:11.036Z,99.90
2019-03-18T04:20:40.446Z,99.90
2019-03-18T04:23:09.929Z,99.90
2019-03-18T04:25:39.348Z,99.90
2019-03-18T04:28:08.739Z,99.90
2019-03-18T04:30:38.182Z,99.90
2019-03-18T04:33:07.599Z,99.90
2019-03-18T04:35:37.031Z,99.90
2019-03-18T04:38:06.457Z,99.90
2019-03-18T04:40:35.912Z,99.90
2019-03-18T04:43:05.317Z,99.90
2019-03-18T04:45:34.813Z,99.90
2019-03-18T04:48:04.327Z,99.90
2019-03-18T04:50:33.739Z,99.90
2019-03-18T04:53:03.171Z,99.90
2019-03-18T04:55:32.583Z,99.90
2019-03-18T04:58:01.999Z,99.90
2019-03-18T05:00:31.436Z,99.90
2019-03-18T05:03:00.885Z,99.90
2019-03-18T05:05:30.723Z,99.90
2019-03-18T05:08:00.188Z,99.90
2019-03-18T05:10:29.912Z,99.90
2019-03-18T05:12:59.610Z,99.90
2019-03-18T05:15:29.025Z,99.90
2019-03-18T05:17:58.477Z,99.90
2019-03-18T05:20:27.901Z,99.90
2019-03-18T05:22:57.303Z,99.90
2019-03-18T05:25:26.914Z,99.90
2019-03-18T05:27:56.379Z,99.90
2019-03-18T05:30:25.803Z,99.90
2019-03-18T05:32:55.490Z,99.90
2019-03-18T05:35:24.924Z,99.90
2019-03-18T05:37:54.332Z,99.90
2019-03-18T05:40:23.744Z,99.90
2019-03-18T05:42:53.535Z,99.90
2019-03-18T05:45:23.265Z,99.90
2019-03-18T05:47:52.692Z,99.90
2019-03-18T05:50:22.093Z,99.90
2019-03-18T05:52:51.578Z,99.90
2019-03-18T05:55:20.991Z,99.90
2019-03-18T05:57:50.481Z,99.90
2019-03-18T06:00:19.925Z,99.90
2019-03-18T06:02:49.348Z,99.90
2019-03-18T06:05:18.780Z,99.90
2019-03-18T06:07:48.290Z,99.90
2019-03-18T06:10:17.689Z,99.90
2019-03-18T06:12:47.185Z,99.90
2019-03-18T06:15:16.951Z,99.90
2019-03-18T06:17:52.371Z,99.90
2019-03-18T06:20:17.539Z,99.90
2019-03-18T06:22:46.956Z,99.90
2019-03-18T06:25:16.400Z,99.90
2019-03-18T06:27:45.838Z,99.90
2019-03-18T06:30:17.576Z,99.90
2019-03-18T06:32:46.990Z,99.90
2019-03-18T06:35:16.391Z,99.90
2019-03-18T06:37:45.926Z,99.90
2019-03-18T06:40:15.978Z,99.90
2019-03-18T06:42:45.411Z,99.90
2019-03-18T06:45:14.850Z,99.90
2019-03-18T06:47:44.269Z,99.90
2019-03-18T06:50:14.351Z,99.90
2019-03-18T06:52:43.762Z,99.90
2019-03-18T06:55:13.284Z,99.90
2019-03-18T06:57:42.685Z,99.90
2019-03-18T07:00:16.069Z,99.90
2019-03-18T07:02:45.483Z,99.90
2019-03-18T07:05:15.306Z,99.90
2019-03-18T07:07:46.328Z,99.90
2019-03-18T07:10:15.943Z,99.90
2019-03-18T07:12:45.431Z,99.90
2019-03-18T07:15:14.828Z,99.90
2019-03-18T07:17:44.301Z,99.90
2019-03-18T07:20:16.901Z,99.90
2019-03-18T07:22:46.323Z,99.90
2019-03-18T07:25:15.761Z,99.90
2019-03-18T07:27:45.200Z,99.90
2019-03-18T07:30:15.647Z,99.90
2019-03-18T07:32:45.078Z,99.90
2019-03-18T07:35:14.548Z,99.90
2019-03-18T07:37:44.043Z,99.90
2019-03-18T07:40:15.459Z,99.90
2019-03-18T07:42:44.907Z,99.90
2019-03-18T07:45:16.217Z,99.90
2019-03-18T07:47:45.981Z,99.90
2019-03-18T07:50:18.090Z,99.90
2019-03-18T07:52:47.488Z,99.90
2019-03-18T07:55:16.943Z,99.90
2019-03-18T07:57:46.359Z,99.90
2019-03-18T08:00:16.524Z,99.90
2019-03-18T08:02:45.943Z,99.90
2019-03-18T08:05:15.415Z,99.90
2019-03-18T08:07:44.859Z,99.90
2019-03-18T08:10:17.182Z,99.90
2019-03-18T08:12:48.930Z,99.90
2019-03-18T08:15:18.365Z,99.90
2019-03-18T08:17:47.774Z,99.90
2019-03-18T08:20:17.522Z,99.90
2019-03-18T08:22:46.920Z,99.90
2019-03-18T08:25:16.365Z,99.90
2019-03-18T08:27:45.825Z,99.90
2019-03-18T08:30:18.310Z,99.90
2019-03-18T08:32:47.731Z,99.90
2019-03-18T08:35:17.214Z,99.90
2019-03-18T08:37:46.744Z,99.90
2019-03-18T08:40:16.139Z,99.90
2019-03-18T08:42:45.586Z,99.90
2019-03-18T08:45:15.518Z,99.90
2019-03-18T08:47:44.929Z,99.90
2019-03-18T08:50:14.426Z,99.90
2019-03-18T08:52:43.827Z,99.90
2019-03-18T08:55:13.388Z,99.90
2019-03-18T08:57:42.825Z,99.90
2019-03-18T09:00:18.934Z,99.90
2019-03-18T09:02:48.366Z,99.90
2019-03-18T09:05:17.825Z,99.90
2019-03-18T09:07:47.306Z,99.90
2019-03-18T09:10:17.935Z,99.90
2019-03-18T09:12:47.331Z,99.90
2019-03-18T09:15:17.221Z,99.90
2019-03-18T09:17:46.623Z,99.90
2019-03-18T09:20:20.179Z,99.90
2019-03-18T09:22:49.905Z,99.90
2019-03-18T09:25:19.317Z,99.90
2019-03-18T09:27:48.744Z,99.90
2019-03-18T09:30:20.262Z,99.90
2019-03-18T09:32:49.843Z,99.90
2019-03-18T09:35:19.306Z,99.90
2019-03-18T09:37:48.713Z,99.90
2019-03-18T09:40:18.517Z,99.90
2019-03-18T09:42:47.929Z,99.90
2019-03-18T09:45:18.571Z,99.90
2019-03-18T09:47:48.033Z,99.90
2019-03-18T09:50:17.845Z,99.90
2019-03-18T09:52:47.278Z,99.90
2019-03-18T09:55:16.765Z,99.90
2019-03-18T09:57:46.212Z,99.90
2019-03-18T10:00:20.182Z,99.90
2019-03-18T10:02:49.690Z,99.90
2019-03-18T10:05:19.097Z,99.90
2019-03-18T10:07:50.619Z,99.90
2019-03-18T10:10:19.894Z,99.90
2019-03-18T10:12:49.371Z,99.90
2019-03-18T10:15:21.125Z,99.90
2019-03-18T10:17:50.691Z,99.90
2019-03-18T10:20:20.091Z,99.90
2019-03-18T10:22:49.551Z,99.90
2019-03-18T10:25:18.955Z,99.90
2019-03-18T10:27:48.387Z,99.90
2019-03-18T10:30:17.899Z,99.90
2019-03-18T10:32:47.392Z,99.90
2019-03-18T10:35:16.894Z,99.90
2019-03-18T10:37:46.330Z,99.90
2019-03-18T10:40:15.927Z,99.90
2019-03-18T10:42:45.401Z,99.90
2019-03-18T10:45:15.684Z,99.90
2019-03-18T10:47:45.452Z,99.90
2019-03-18T10:50:16.885Z,99.90
2019-03-18T10:52:46.338Z,99.90
2019-03-18T10:55:15.873Z,99.90
2019-03-18T10:57:45.336Z,99.90
2019-03-18T11:00:17.923Z,99.90
2019-03-18T11:02:47.406Z,99.90
2019-03-18T11:05:17.148Z,99.90
2019-03-18T11:07:46.639Z,99.90
2019-03-18T11:10:19.143Z,99.90
2019-03-18T11:12:48.547Z,99.90
2019-03-18T11:15:20.969Z,99.90
2019-03-18T11:17:50.450Z,99.90
2019-03-18T11:20:20.235Z,99.90
2019-03-18T11:22:50.041Z,99.90
2019-03-18T11:25:19.467Z,99.90
2019-03-18T11:27:48.910Z,99.90
2019-03-18T11:30:20.330Z,99.90
2019-03-18T11:32:49.756Z,99.90
2019-03-18T11:35:19.172Z,99.90
2019-03-18T11:37:48.591Z,99.90
2019-03-18T11:40:22.408Z,99.90
2019-03-18T11:42:51.962Z,99.90
2019-03-18T11:45:21.517Z,99.90
2019-03-18T11:47:51.010Z,99.90
2019-03-18T11:50:21.270Z,99.90
2019-03-18T11:52:50.759Z,99.90
2019-03-18T11:55:23.465Z,99.90
2019-03-18T11:57:53.034Z,99.90
2019-03-18T12:00:25.241Z,99.90
2019-03-18T12:02:54.691Z,99.90
2019-03-18T12:05:26.212Z,99.90
2019-03-18T12:07:55.721Z,99.90
2019-03-18T12:10:26.074Z,99.90
2019-03-18T12:12:55.716Z,99.90
2019-03-18T12:15:28.217Z,99.90
2019-03-18T12:17:57.779Z,99.90
2019-03-18T12:20:27.191Z,99.90
2019-03-18T12:22:56.722Z,99.90
2019-03-18T12:25:26.148Z,99.90
2019-03-18T12:27:55.561Z,99.90
2019-03-18T12:30:26.994Z,99.90
2019-03-18T12:32:56.712Z,99.90
2019-03-18T12:35:26.154Z,99.90
2019-03-18T12:37:55.631Z,99.90
2019-03-18T12:40:25.216Z,99.90
2019-03-18T12:42:54.760Z,99.90
2019-03-18T12:45:24.246Z,99.90
2019-03-18T12:47:53.743Z,99.90
2019-03-18T12:50:43.190Z,99.90
2019-03-18T12:52:56.076Z,99.90
2019-03-18T12:55:25.469Z,99.90
2019-03-18T12:57:54.882Z,99.90
2019-03-18T13:00:35.842Z,99.90
2019-03-18T13:03:05.775Z,99.90
2019-03-18T13:05:35.391Z,99.90
2019-03-18T13:08:04.883Z,99.90
2019-03-18T13:10:34.375Z,99.90
2019-03-18T13:13:03.821Z,99.90
2019-03-18T13:15:33.301Z,99.90
2019-03-18T13:18:02.752Z,99.90
2019-03-18T13:20:32.243Z,99.90
2019-03-18T13:23:01.793Z,99.90
2019-03-18T13:25:31.227Z,99.90
2019-03-18T13:28:00.642Z,99.90
2019-03-18T13:30:30.362Z,99.90
2019-03-18T13:32:59.858Z,99.90
2019-03-18T13:35:29.327Z,99.90
2019-03-18T13:37:58.818Z,99.90
2019-03-18T13:40:28.297Z,99.90
2019-03-18T13:42:58.016Z,99.90
2019-03-18T13:45:27.429Z,99.90
2019-03-18T13:47:56.883Z,99.90
2019-03-18T13:50:26.300Z,99.90
2019-03-18T13:52:55.704Z,99.90
2019-03-18T13:55:25.338Z,99.90
2019-03-18T13:57:55.175Z,99.90
2019-03-18T14:00:24.782Z,99.90
2019-03-18T14:02:54.242Z,99.90
2019-03-18T14:05:24.082Z,99.90
2019-03-18T14:08:00.363Z,99.90
2019-03-18T14:10:25.163Z,99.90
2019-03-18T14:12:55.046Z,99.10
2019-03-18T14:15:25.617Z,99.90
2019-03-18T14:17:57.078Z,99.20
2019-03-18T14:20:29.257Z,97.60
2019-03-18T14:22:58.801Z,99.40
2019-03-18T14:25:28.522Z,96.50
2019-03-18T14:27:57.989Z,91.50
2019-03-18T14:30:27.415Z,90.30
2019-03-18T14:32:56.819Z,96.80
2019-03-18T14:35:26.225Z,95.50
2019-03-18T14:37:55.935Z,98.60
2019-03-18T14:40:26.092Z,98.70
2019-03-18T14:42:55.715Z,99.90
2019-03-18T14:45:25.859Z,99.00
2019-03-18T14:47:55.312Z,93.60
2019-03-18T14:50:24.704Z,92.90
2019-03-18T14:52:54.099Z,96.50
2019-03-18T14:55:23.533Z,99.80
2019-03-18T14:57:52.951Z,99.90
2019-03-18T15:00:27.037Z,99.90
2019-03-18T15:02:56.560Z,99.90
2019-03-18T15:05:26.100Z,99.90
2019-03-18T15:07:55.599Z,99.90
2019-03-18T15:10:27.202Z,99.90
2019-03-18T15:12:56.994Z,99.90
2019-03-18T15:15:26.480Z,97.20
2019-03-18T15:17:55.960Z,99.90
2019-03-18T15:20:28.906Z,99.90
2019-03-18T15:22:58.318Z,99.90
2019-03-18T15:25:36.102Z,99.90
2019-03-18T15:28:05.646Z,99.90
2019-03-18T15:30:35.291Z,99.00
2019-03-18T15:33:04.840Z,99.90
2019-03-18T15:35:34.560Z,99.10
2019-03-18T15:38:04.020Z,99.60
2019-03-18T15:40:33.429Z,98.00
2019-03-18T15:43:02.839Z,98.50
2019-03-18T15:45:35.038Z,98.20
2019-03-18T15:48:04.539Z,97.80
2019-03-18T15:50:34.101Z,97.80
2019-03-18T15:53:03.730Z,98.80
2019-03-18T15:55:33.433Z,99.90
2019-03-18T15:58:02.903Z,99.90
2019-03-18T16:00:36.783Z,96.20
2019-03-18T16:03:06.354Z,95.00
2019-03-18T16:05:35.755Z,97.30
2019-03-18T16:08:05.165Z,99.80
2019-03-18T16:10:34.588Z,98.80
2019-03-18T16:13:04.093Z,99.40
2019-03-18T16:15:33.509Z,98.90
2019-03-18T16:21:32.573Z,99.90
2019-03-18T16:24:01.985Z,99.90
2019-03-18T16:26:31.425Z,99.90
2019-03-18T16:29:00.836Z,99.90
2019-03-18T16:31:30.268Z,99.90
2019-03-18T16:33:59.684Z,99.90
2019-03-18T16:36:29.099Z,98.60
2019-03-18T16:38:58.537Z,99.90
2019-03-18T16:41:28.057Z,99.90
2019-03-18T16:43:57.671Z,99.90
2019-03-18T16:46:27.194Z,99.90
2019-03-18T16:48:56.604Z,99.90
2019-03-18T16:51:26.142Z,99.90
2019-03-18T16:53:55.621Z,99.90
2019-03-18T16:56:25.079Z,99.90
2019-03-18T16:58:54.489Z,99.90
2019-03-18T17:01:23.911Z,99.90
2019-03-18T17:03:53.401Z,99.90
2019-03-18T17:06:22.827Z,99.90
2019-03-18T17:08:52.266Z,99.90
2019-03-18T17:11:21.671Z,99.90
2019-03-18T17:13:51.424Z,99.90
2019-03-18T17:16:22.612Z,99.90
2019-03-18T17:18:52.192Z,99.90
2019-03-18T17:21:21.691Z,99.90
2019-03-18T17:23:51.492Z,99.90
2019-03-18T17:26:20.912Z,99.90
2019-03-18T17:28:50.320Z,99.90
2019-03-18T17:31:19.741Z,99.90
2019-03-18T17:33:49.500Z,99.90
2019-03-18T17:36:18.941Z,99.90
2019-03-18T17:38:48.486Z,99.90
2019-03-18T17:41:17.914Z,99.90
2019-03-18T17:43:47.292Z,99.90
2019-03-18T17:46:16.748Z,99.90
2019-03-18T17:48:46.150Z,99.90
2019-03-18T17:51:15.643Z,99.90
2019-03-18T17:53:45.350Z,99.90
2019-03-18T17:56:14.822Z,99.90
2019-03-18T17:58:44.648Z,99.90
2019-03-18T18:01:15.955Z,99.90
2019-03-18T18:03:45.375Z,99.90
2019-03-18T18:06:15.137Z,99.90
2019-03-18T18:08:44.652Z,99.90
2019-03-18T18:11:14.124Z,99.90
2019-03-18T18:13:43.550Z,99.90
2019-03-18T18:16:13.018Z,99.90
2019-03-18T18:18:42.439Z,99.90
2019-03-18T18:21:11.967Z,99.90
2019-03-18T18:23:41.386Z,99.90
2019-03-18T18:26:10.806Z,99.90
2019-03-18T18:28:40.251Z,99.90
2019-03-18T18:31:09.658Z,99.90
2019-03-18T18:33:39.145Z,99.90
2019-03-18T18:36:08.897Z,99.90
2019-03-18T18:38:38.654Z,99.90
2019-03-18T18:41:08.064Z,99.90
2019-03-18T18:43:37.504Z,99.90
2019-03-18T18:46:07.269Z,99.90
2019-03-18T18:48:36.666Z,99.90
2019-03-18T18:51:06.240Z,99.90
2019-03-18T18:53:35.644Z,99.90
2019-03-18T18:56:06.772Z,99.90
2019-03-18T18:58:36.391Z,99.90
2019-03-18T19:01:05.874Z,99.90
2019-03-18T19:03:35.313Z,99.90
2019-03-18T19:06:04.781Z,99.90
2019-03-18T19:08:34.204Z,99.90
2019-03-18T19:11:03.649Z,99.90
2019-03-18T19:13:33.051Z,99.90
2019-03-18T19:16:02.588Z,99.90
2019-03-18T19:18:37.691Z,99.90
2019-03-18T19:21:03.149Z,99.90
2019-03-18T19:23:37.622Z,99.90
2019-03-18T19:26:03.796Z,99.90
2019-03-18T19:28:33.235Z,99.90
2019-03-18T19:31:02.636Z,99.90
2019-03-18T19:33:32.112Z,99.90
2019-03-18T19:36:01.601Z,99.90
2019-03-18T19:38:31.054Z,99.90
2019-03-18T19:41:00.559Z,99.90
2019-03-18T19:43:29.980Z,99.90
2019-03-18T19:45:59.430Z,99.90
2019-03-18T19:48:28.850Z,99.90
2019-03-18T19:50:58.259Z,99.90
2019-03-18T19:53:27.692Z,99.90
2019-03-18T19:55:57.132Z,99.90
2019-03-18T19:58:26.889Z,99.90
2019-03-18T20:00:56.310Z,99.90
2019-03-18T20:03:25.734Z,99.90
2019-03-18T20:05:55.172Z,99.90
2019-03-18T20:08:24.577Z,99.90
2019-03-18T20:10:54.038Z,99.90
2019-03-18T20:13:23.436Z,99.90
2019-03-18T20:15:52.850Z,99.90
2019-03-18T20:18:22.280Z,99.90
2019-03-18T20:20:51.696Z,99.90
2019-03-18T20:23:21.493Z,99.90
2019-03-18T20:25:51.288Z,99.90
2019-03-18T20:28:20.751Z,99.90
2019-03-18T20:30:50.146Z,99.90
2019-03-18T20:33:19.541Z,99.90
2019-03-18T20:35:48.986Z,99.90
2019-03-18T20:38:18.413Z,99.90
2019-03-18T20:40:48.172Z,99.90
2019-03-18T20:43:17.945Z,99.90
2019-03-18T20:45:47.431Z,99.90
2019-03-18T20:48:17.141Z,99.90
2019-03-18T20:50:46.857Z,99.90
2019-03-18T20:53:16.312Z,99.90
2019-03-18T20:55:45.722Z,99.90
2019-03-18T20:58:15.140Z,99.90
2019-03-18T21:00:44.828Z,99.90
2019-03-18T21:03:14.242Z,99.90
2019-03-18T21:05:43.684Z,99.90
2019-03-18T21:08:13.080Z,99.90
2019-03-18T21:10:42.547Z,99.90
2019-03-18T21:13:11.941Z,99.90
2019-03-18T21:15:41.354Z,99.90
2019-03-18T21:18:10.779Z,99.90
2019-03-18T21:20:40.180Z,99.90
2019-03-18T21:23:11.463Z,99.90
2019-03-18T21:25:40.958Z,99.90
2019-03-18T21:28:10.505Z,99.90
2019-03-18T21:30:39.969Z,99.90
2019-03-18T21:33:12.639Z,99.90
2019-03-18T21:35:42.145Z,99.90
2019-03-18T21:38:11.567Z,99.90
2019-03-18T21:40:40.976Z,99.90
2019-03-18T21:43:11.938Z,99.90
2019-03-18T21:45:41.341Z,99.90
2019-03-18T21:48:10.765Z,99.90
2019-03-18T21:50:40.508Z,99.90
2019-03-18T21:53:09.939Z,99.90
2019-03-18T21:55:58.702Z,99.90
2019-03-18T21:58:28.130Z,99.90
2019-03-18T22:00:57.589Z,99.90
2019-03-18T22:03:26.997Z,99.90
2019-03-18T22:05:56.877Z,99.90
2019-03-18T22:08:26.288Z,99.90
2019-03-18T22:10:55.774Z,99.90
2019-03-18T22:13:25.209Z,99.90
2019-03-18T22:15:54.623Z,99.90
2019-03-18T22:18:24.372Z,99.90
2019-03-18T22:20:53.786Z,99.90
2019-03-18T22:23:23.209Z,99.90
2019-03-18T22:25:52.637Z,99.90
2019-03-18T22:28:22.045Z,99.90
2019-03-18T22:30:51.484Z,99.90
2019-03-18T22:33:20.896Z,99.90
2019-03-18T22:35:50.325Z,99.90
2019-03-18T22:38:19.739Z,99.90
2019-03-18T22:40:49.150Z,99.90
2019-03-18T22:43:18.578Z,99.90
2019-03-18T22:45:47.999Z,99.90
2019-03-18T22:48:17.438Z,99.90
2019-03-18T22:50:46.846Z,99.90
2019-03-18T22:53:18.624Z,99.90
2019-03-18T22:55:48.053Z,99.90
2019-03-18T22:58:19.436Z,99.90
2019-03-18T23:00:50.377Z,99.90
2019-03-18T23:03:22.889Z,99.90
2019-03-18T23:05:51.587Z,99.90
2019-03-18T23:08:20.989Z,99.90
2019-03-18T23:10:50.480Z,99.90
2019-03-18T23:13:19.928Z,99.90
2019-03-18T23:15:49.335Z,99.90
2019-03-18T23:18:18.913Z,99.90
2019-03-18T23:20:48.340Z,99.90
2019-03-18T23:23:20.252Z,99.90
2019-03-18T23:25:49.044Z,99.90
2019-03-18T23:28:18.474Z,99.90
2019-03-18T23:30:47.957Z,99.90
2019-03-18T23:33:17.338Z,99.90
2019-03-18T23:35:46.743Z,99.90
2019-03-18T23:38:16.181Z,99.90
2019-03-18T23:40:45.593Z,99.90
2019-03-18T23:43:15.008Z,99.90
2019-03-18T23:45:44.411Z,99.90
2019-03-18T23:48:13.830Z,99.90
2019-03-18T23:50:43.605Z,99.90
2019-03-18T23:53:13.090Z,99.90
2019-03-18T23:55:42.916Z,99.90
2019-03-18T23:58:12.402Z,99.90
